createdAt,value
2023-05-15T00:04:57.493Z,16.42
2023-05-15T00:10:00.939Z,16.27
2023-05-15T00:15:05.411Z,16.61
2023-05-15T00:20:10.340Z,16.20
2023-05-15T00:25:13.551Z,15.95
2023-05-15T00:30:17.095Z,16.48
2023-05-15T00:35:21.032Z,16.10
2023-05-15T00:40:26.362Z,15.45
2023-05-15T00:45:30.814Z,14.67
2023-05-15T00:50:34.209Z,14.52
2023-05-15T00:55:38.346Z,14.18
2023-05-15T01:00:44.298Z,14.24
2023-05-15T01:05:48.022Z,13.94
2023-05-15T01:10:52.338Z,13.99
2023-05-15T01:15:56.905Z,13.85
2023-05-15T01:21:07.598Z,13.89
2023-05-15T01:26:44.150Z,14.02
2023-05-15T01:31:55.153Z,13.63
2023-05-15T01:37:03.529Z,13.79
2023-05-15T01:42:11.576Z,13.77
2023-05-15T01:47:20.950Z,13.90
2023-05-15T01:52:35.243Z,13.83
2023-05-15T01:57:41.839Z,13.78
2023-05-15T02:02:46.916Z,13.67
2023-05-15T02:07:52.195Z,13.23
2023-05-15T02:12:55.939Z,13.16
2023-05-15T02:17:59.974Z,13.38
2023-05-15T02:23:03.356Z,13.12
2023-05-15T02:28:09.301Z,12.68
2023-05-15T02:33:54.736Z,13.05
2023-05-15T02:38:59.539Z,13.00
2023-05-15T02:44:03.936Z,13.15
2023-05-15T02:49:07.973Z,13.17
2023-05-15T02:54:12.246Z,13.56
2023-05-15T02:59:20.286Z,13.27
2023-05-15T03:04:24.581Z,13.35
2023-05-15T03:09:28.762Z,12.96
2023-05-15T03:14:32.528Z,13.13
2023-05-15T03:19:36.730Z,12.79
2023-05-15T03:24:39.756Z,13.19
2023-05-15T03:29:43.656Z,13.21
2023-05-15T03:34:47.280Z,13.31
2023-05-15T03:39:50.372Z,13.18
2023-05-15T03:44:55.004Z,12.99
2023-05-15T03:49:58.758Z,13.12
2023-05-15T03:55:02.343Z,12.78
2023-05-15T04:03:02.851Z,12.85
2023-05-15T04:08:07.522Z,12.74
2023-05-15T04:13:10.795Z,12.68
2023-05-15T04:18:15.010Z,13.11
2023-05-15T04:23:18.239Z,13.31
2023-05-15T04:28:22.106Z,13.11
2023-05-15T04:33:26.202Z,13.06
2023-05-15T04:38:29.907Z,13.00
2023-05-15T04:43:33.314Z,12.99
2023-05-15T04:48:36.418Z,13.26
2023-05-15T04:53:40.624Z,13.10
2023-05-15T04:58:43.889Z,12.92
2023-05-15T05:03:48.127Z,12.93
2023-05-15T05:08:51.759Z,12.83
2023-05-15T05:13:56.008Z,12.97
2023-05-15T05:18:59.607Z,13.04
2023-05-15T05:24:03.485Z,13.12
2023-05-15T05:29:07.176Z,13.24
2023-05-15T05:34:10.828Z,13.35
2023-05-15T05:39:15.732Z,13.50
2023-05-15T05:44:19.791Z,13.67
2023-05-15T05:49:22.956Z,13.70
2023-05-15T05:54:27.261Z,13.91
2023-05-15T05:59:31.045Z,14.66
2023-05-15T06:04:34.794Z,14.51
2023-05-15T06:09:38.014Z,14.16
2023-05-15T06:14:42.281Z,14.05
2023-05-15T06:19:45.886Z,14.07
2023-05-15T06:24:49.071Z,14.13
2023-05-15T06:29:53.372Z,14.11
2023-05-15T06:34:57.522Z,14.16
2023-05-15T06:40:00.759Z,13.98
2023-05-15T06:45:04.247Z,13.99
2023-05-15T06:50:08.332Z,14.00
2023-05-15T06:56:53.562Z,13.82
2023-05-15T07:01:56.914Z,13.86
2023-05-15T07:07:00.572Z,13.36
2023-05-15T07:12:04.572Z,13.81
2023-05-15T07:17:08.643Z,13.63
2023-05-15T07:22:12.427Z,13.71
2023-05-15T07:27:16.576Z,13.37
2023-05-15T07:32:20.308Z,13.77
2023-05-15T07:37:24.169Z,13.94
2023-05-15T07:42:28.023Z,14.15
2023-05-15T07:47:31.643Z,14.34
2023-05-15T07:52:34.796Z,14.65
2023-05-15T07:57:40.112Z,15.03
2023-05-15T08:02:46.519Z,15.30
2023-05-15T08:07:49.731Z,15.77
2023-05-15T08:12:53.325Z,16.74
2023-05-15T08:17:57.201Z,18.81
2023-05-15T08:23:00.700Z,18.56
2023-05-15T08:28:06.082Z,17.53
2023-05-15T08:33:09.263Z,17.43
2023-05-15T08:38:12.992Z,17.44
2023-05-15T08:43:21.536Z,17.97
2023-05-15T08:48:27.748Z,17.34
2023-05-15T08:53:31.907Z,16.01
2023-05-15T08:58:36.194Z,15.38
2023-05-15T09:03:40.446Z,15.44
2023-05-15T09:08:44.818Z,15.09
2023-05-15T09:13:48.986Z,14.92
2023-05-15T09:18:54.366Z,15.05
2023-05-15T09:24:25.018Z,14.95
2023-05-15T09:29:30.150Z,14.96
2023-05-15T09:34:36.034Z,15.03
2023-05-15T09:39:43.734Z,15.14
2023-05-15T09:44:47.798Z,15.98
2023-05-15T09:49:51.368Z,16.04
2023-05-15T09:54:54.836Z,16.97
2023-05-15T10:00:10.926Z,16.93
2023-05-15T10:05:15.291Z,16.88
2023-05-15T10:10:18.908Z,16.58
2023-05-15T10:15:23.203Z,16.40
2023-05-15T10:20:28.139Z,16.22
2023-05-15T10:25:47.456Z,16.54
2023-05-15T10:30:52.968Z,16.65
2023-05-15T10:35:59.530Z,17.22
2023-05-15T10:41:16.575Z,16.58
2023-05-15T10:46:22.842Z,17.32
2023-05-15T10:51:30.077Z,17.37
2023-05-15T10:56:35.048Z,17.22
2023-05-15T11:01:39.551Z,17.46
2023-05-15T11:06:44.786Z,18.77
2023-05-15T11:12:00.602Z,18.79
2023-05-15T11:17:07.350Z,19.31
2023-05-15T11:22:21.652Z,19.50
2023-05-15T11:27:30.113Z,19.63
2023-05-15T11:32:41.962Z,19.15
2023-05-15T11:37:58.840Z,18.10
2023-05-15T11:43:05.105Z,17.35
2023-05-15T11:48:12.642Z,18.48
2023-05-15T11:53:17.020Z,18.17
2023-05-15T11:58:22.527Z,18.62
2023-05-15T12:03:28.111Z,18.82
2023-05-15T12:08:36.420Z,18.97
2023-05-15T12:13:39.964Z,19.33
2023-05-15T12:18:43.421Z,20.03
2023-05-15T12:24:06.514Z,20.39
2023-05-15T12:29:11.589Z,20.81
2023-05-15T12:34:15.052Z,20.29
2023-05-15T12:39:18.854Z,19.91
2023-05-15T12:44:22.450Z,19.43
2023-05-15T12:49:25.806Z,20.66
2023-05-15T12:54:29.799Z,19.19
2023-05-15T12:59:33.845Z,18.37
2023-05-15T13:04:37.466Z,19.18
2023-05-15T13:09:41.339Z,20.06
2023-05-15T13:14:44.979Z,20.28
2023-05-15T13:19:48.515Z,19.14
2023-05-15T13:24:53.599Z,18.77
2023-05-15T13:29:57.402Z,18.28
2023-05-15T13:35:01.005Z,18.87
2023-05-15T13:40:10.283Z,18.56
2023-05-15T13:45:16.543Z,18.13
2023-05-15T13:50:20.765Z,17.75
2023-05-15T13:55:25.862Z,17.63
2023-05-15T14:00:29.118Z,17.31
2023-05-15T14:05:33.225Z,16.45
2023-05-15T14:10:37.739Z,16.47
2023-05-15T14:15:41.201Z,16.57
2023-05-15T14:20:44.929Z,16.48
2023-05-15T14:25:47.989Z,16.66
2023-05-15T14:30:52.133Z,16.81
2023-05-15T14:35:55.320Z,17.62
2023-05-15T14:40:59.681Z,17.44
2023-05-15T14:46:02.866Z,17.29
2023-05-15T14:51:07.838Z,17.32
2023-05-15T14:56:11.107Z,17.16
2023-05-15T15:01:14.334Z,17.33
2023-05-15T15:06:18.864Z,17.47
2023-05-15T15:11:22.607Z,18.88
2023-05-15T15:16:26.331Z,18.56
2023-05-15T15:21:30.188Z,18.66
2023-05-15T15:26:58.617Z,17.89
2023-05-15T15:32:02.569Z,17.36
2023-05-15T15:37:06.170Z,16.86
2023-05-15T15:42:13.408Z,16.71
2023-05-15T15:47:16.885Z,16.09
2023-05-15T15:52:21.311Z,16.35
2023-05-15T15:57:24.543Z,15.82
2023-05-15T16:02:28.622Z,16.14
2023-05-15T16:07:32.128Z,15.94
2023-05-15T16:12:36.111Z,15.82
2023-05-15T16:17:39.679Z,16.06
2023-05-15T16:22:44.206Z,15.51
2023-05-15T16:27:47.508Z,15.93
2023-05-15T16:32:52.446Z,15.66
2023-05-15T16:37:56.045Z,15.16
2023-05-15T16:42:59.629Z,14.80
2023-05-15T16:48:03.802Z,14.79
2023-05-15T16:53:09.019Z,14.47
2023-05-15T16:58:13.187Z,14.37
2023-05-15T17:03:18.252Z,14.23
2023-05-15T17:08:22.503Z,13.95
2023-05-15T17:13:27.663Z,14.15
2023-05-15T17:18:31.470Z,13.57
2023-05-15T17:23:34.988Z,13.91
2023-05-15T17:28:39.226Z,14.02
2023-05-15T17:33:43.355Z,13.94
2023-05-15T17:38:47.317Z,13.89
2023-05-15T17:43:51.216Z,13.31
2023-05-15T17:48:54.831Z,13.44
2023-05-15T17:53:58.339Z,13.68
2023-05-15T17:59:01.798Z,13.39
2023-05-15T18:04:05.871Z,13.58
2023-05-15T18:09:09.805Z,13.10
2023-05-15T18:14:13.364Z,13.53
2023-05-15T18:19:18.337Z,13.32
2023-05-15T18:24:21.896Z,13.00
2023-05-15T18:29:25.688Z,13.32
2023-05-15T18:34:29.368Z,12.83
2023-05-15T18:39:33.383Z,12.85
2023-05-15T18:44:37.210Z,13.19
2023-05-15T18:49:41.169Z,12.10
2023-05-15T18:54:45.422Z,11.49
2023-05-15T18:59:51.016Z,11.40
2023-05-15T19:04:54.951Z,11.62
2023-05-15T19:10:01.951Z,11.90
2023-05-15T19:15:05.561Z,12.08
2023-05-15T19:20:09.620Z,12.03
2023-05-15T19:25:13.474Z,11.86
2023-05-15T19:30:17.482Z,12.34
2023-05-15T19:35:22.814Z,12.45
2023-05-15T19:40:26.725Z,12.40
2023-05-15T19:45:30.730Z,11.90
2023-05-15T19:50:34.302Z,11.33
2023-05-15T19:55:38.756Z,10.77
2023-05-15T20:00:42.028Z,10.28
2023-05-15T20:05:45.526Z,9.64
2023-05-15T20:10:52.810Z,9.74
2023-05-15T20:15:57.535Z,9.67
2023-05-15T20:21:01.051Z,9.74
2023-05-15T20:26:05.190Z,9.48
2023-05-15T20:31:10.139Z,9.75
2023-05-15T20:36:16.884Z,9.66
2023-05-15T20:41:22.846Z,9.73
2023-05-15T20:46:29.523Z,9.75
2023-05-15T20:51:34.015Z,9.79
2023-05-15T20:56:38.260Z,9.63
2023-05-15T21:01:41.806Z,9.75
2023-05-15T21:06:45.950Z,9.79
2023-05-15T21:11:50.099Z,10.66
2023-05-15T21:16:54.132Z,11.05
2023-05-15T21:21:57.437Z,11.22
2023-05-15T21:27:01.098Z,10.95
2023-05-15T21:32:06.374Z,11.28
2023-05-15T21:37:10.450Z,11.18
2023-05-15T21:42:13.772Z,10.79
2023-05-15T21:47:18.126Z,10.82
2023-05-15T21:52:21.912Z,11.17
2023-05-15T21:57:25.954Z,10.70
2023-05-15T22:02:29.849Z,10.98
2023-05-15T22:07:33.678Z,11.12
2023-05-15T22:12:38.018Z,11.09
2023-05-15T22:17:42.133Z,10.82
2023-05-15T22:22:46.173Z,10.97
2023-05-15T22:27:50.210Z,10.79
2023-05-15T22:32:54.202Z,11.13
2023-05-15T22:37:57.857Z,10.74
2023-05-15T22:43:02.156Z,9.98
2023-05-15T22:48:06.043Z,9.52
2023-05-15T22:53:09.887Z,9.49
2023-05-15T22:58:13.745Z,9.16
2023-05-15T23:03:17.746Z,8.77
2023-05-15T23:08:21.974Z,8.48
2023-05-15T23:13:25.600Z,8.49
2023-05-15T23:18:30.068Z,8.11
2023-05-15T23:23:33.673Z,8.05
2023-05-15T23:28:37.421Z,8.54
2023-05-15T23:33:41.088Z,8.51
2023-05-15T23:38:44.374Z,8.42
2023-05-15T23:43:50.109Z,8.49
2023-05-15T23:48:53.676Z,8.27
2023-05-15T23:53:57.755Z,8.53
2023-05-15T23:59:01.797Z,8.64
